Latest Coastal Weather Observations for Tewantin

IDQ60701

Issued at 12:51 am EST Tuesday 25 July 2017 (issued every 10 minutes, with the page automatically refreshed every 10 minutes)

About coastal observations | Map of coastal stations | Coastal observations for QLD | Marine services | Other Formats
Station Details ID: 040908 Name: TEWANTIN RSL PARK Lat: -26.39 Lon: 153.04 Height: 6.4 m
Data from the previous 72 hours. | See also: Recent months at Tewantin
Date/Time
EST
Temp
°C
Wind Pressure Rain since
9am
mm
Weather Cloud Vis
km
Sea
Height
m
Swell
Dir  Spd
kts
Gust
kts
hPa Trend Height
m
Period
s
Dir
25/12:30am 10.3 CALM 0 0 1021.8 - 0.0 - - - - - - -
25/12:00am 10.6 CALM 0 0 1021.7 - 0.0 - - - - - - -
 
Date/Time
EST
Temp
°C
Wind Pressure Rain since
9am
mm
Weather Cloud Vis
km
Sea
Height
m
Swell
Dir  Spd
kts
Gust
kts
hPa Trend Height
m
Period
s
Dir
24/11:30pm 10.7 CALM 0 0 1021.7 - 0.0 - - - - - - -
24/11:00pm 11.2 CALM 0 0 1021.7 - 0.0 - - - - - - -
24/10:30pm 11.3 CALM 0 0 1021.7 - 0.0 - - - - - - -
24/10:00pm 11.5 SW 3 5 1021.8 - 0.0 - - - - - - -
24/09:30pm 12.2 CALM 0 0 1021.6 - 0.0 - - - - - - -
24/09:00pm 12.4 SW 1 5 1021.6 - 0.0 - - - - - - -
24/08:30pm 13.1 SW 2 4 1021.6 - 0.0 - - - - - - -
24/08:00pm 13.4 CALM 0 0 1021.4 - 0.0 - - - - - - -
24/07:30pm 14.2 CALM 0 0 1021.1 - 0.0 - - - - - - -
24/07:00pm 15.4 SW 1 3 1020.8 - 0.0 - - - - - - -
24/06:30pm 16.3 WSW 1 3 1020.5 - 0.0 - - - - - - -
24/06:00pm 17.4 SW 3 5 1020.2 - 0.0 - - - - - - -
24/05:30pm 18.7 SSW 3 4 1019.8 - 0.0 - - - - - - -
24/05:00pm 19.7 ESE 3 5 1019.6 - 0.0 - - - - - - -
24/04:30pm 20.7 SE 3 5 1019.4 - 0.0 - - - - - - -
24/04:00pm 21.1 SE 4 7 1019.3 - 0.0 - - - - - - -
24/03:30pm 21.9 SSE 5 7 1019.2 - 0.0 - - - - - - -
24/03:00pm 22.1 ESE 5 7 1019.2 - 0.0 - - - - - - -
24/02:30pm 22.7 SE 5 7 1019.2 - 0.0 - - - - - - -
24/02:00pm 22.6 ESE 5 7 1019.3 - 0.0 - - - - - - -
24/01:30pm 22.6 ESE 5 7 1019.5 - 0.0 - - - - - - -
24/01:00pm 22.8 ESE 4 6 1019.8 - 0.0 - - - - - - -
24/12:30pm 23.6 ENE 1 3 1020.1 - 0.0 - - - - - - -
24/12:00pm 22.2 SSW 2 4 1020.7 - 0.0 - - - - - - -
24/11:30am 22.0 SSE 3 5 1021.1 - 0.0 - - - - - - -
24/11:00am 21.2 S 3 5 1021.6 - 0.0 - - - - - - -
24/10:30am 21.2 W 3 5 1021.9 - 0.0 - - - - - - -
24/10:00am 19.8 W 3 6 1022.2 - 0.0 - - - - - - -
24/09:30am 18.2 WSW 4 7 1022.2 - 0.0 - - - - - - -
24/09:00am 15.9 N 4 5 1022.1 - 0.0 - - - - - - -
24/08:30am 13.7 NNW 3 5 1021.8 - 0.0 - - - - - - -
24/08:00am 11.6 NNW 3 5 1021.6 - 0.0 - - - - - - -
24/07:30am 9.7 NNW 3 4 1021.3 - 0.0 - - - - - - -
24/07:00am 8.2 CALM 0 0 1021.0 - 0.0 - - - - - - -
24/06:30am 7.8 NNW 3 4 1020.9 - 0.0 - - - - - - -
24/06:00am 7.8 CALM 0 0 1020.7 - 0.0 - - - - - - -
24/05:30am 7.9 NNW 1 3 1020.3 - 0.0 - - - - - - -
24/05:00am 9.0 NW 4 5 1020.1 - 0.0 - - - - - - -
24/04:30am 8.6 NNW 1 4 1019.9 - 0.0 - - - - - - -
24/04:00am 8.6 CALM 0 3 1019.6 - 0.0 - - - - - - -
24/03:30am 8.5 CALM 0 0 1019.8 - 0.0 - - - - - - -
24/03:00am 8.7 CALM 0 0 1019.8 - 0.0 - - - - - - -
24/02:30am 9.5 NW 3 4 1020.0 - 0.0 - - - - - - -
24/02:00am 9.7 NNW 3 4 1020.1 - 0.0 - - - - - - -
24/01:30am 10.2 CALM 0 3 1020.2 - 0.0 - - - - - - -
24/01:00am 10.3 CALM 0 0 1020.3 - 0.0 - - - - - - -
24/12:30am 11.2 NNW 1 4 1020.3 - 0.0 - - - - - - -
24/12:00am 11.2 WSW 2 6 1020.3 - 0.0 - - - - - - -
 
Date/Time
EST
Temp
°C
Wind Pressure Rain since
9am
mm
Weather Cloud Vis
km
Sea
Height
m
Swell
Dir  Spd
kts
Gust
kts
hPa Trend Height
m
Period
s
Dir
23/11:30pm 12.0 WNW 4 5 1020.2 - 0.0 - - - - - - -
23/11:00pm 12.1 NW 3 3 1020.4 - 0.0 - - - - - - -
23/10:30pm 12.5 WNW 1 3 1020.5 - 0.0 - - - - - - -
23/10:00pm 13.3 CALM 0 0 1020.5 - 0.0 - - - - - - -
23/09:30pm 14.5 NE 1 4 1020.5 - 0.0 - - - - - - -
23/09:00pm 14.3 SSW 4 5 1020.5 - 0.0 - - - - - - -
23/08:30pm 14.9 WNW 4 5 1020.1 - 0.0 - - - - - - -
23/08:00pm 14.5 CALM 0 3 1019.9 - 0.0 - - - - - - -
23/07:30pm 15.3 NW 2 5 1019.6 - 0.0 - - - - - - -
23/07:00pm 15.7 NW 3 4 1019.3 - 0.0 - - - - - - -
23/06:30pm 17.2 NNW 4 5 1019.0 - 0.0 - - - - - - -
23/06:00pm 18.0 N 3 4 1018.7 - 0.0 - - - - - - -
23/05:30pm 18.2 NNE 5 7 1018.4 - 0.0 - - - - - - -
23/05:00pm 19.0 NNE 6 9 1018.1 - 0.0 - - - - - - -
23/04:30pm 19.8 NNE 7 9 1018.0 - 0.0 - - - - - - -
23/04:00pm 20.3 NNE 8 13 1018.0 - 0.0 - - - - - - -
23/03:30pm 21.2 N 6 12 1017.9 - 0.0 - - - - - - -
23/03:00pm 23.0 NW 5 9 1017.7 - 0.0 - - - - - - -
23/02:30pm 22.9 NNW 5 8 1017.7 - 0.0 - - - - - - -
23/02:00pm 22.9 N 5 9 1018.1 - 0.0 - - - - - - -
23/01:30pm 22.9 NNW 7 10 1018.6 - 0.0 - - - - - - -
23/01:00pm 23.0 NW 5 9 1019.0 - 0.0 - - - - - - -
23/12:30pm 22.5 WNW 5 11 1019.6 - 0.0 - - - - - - -
23/12:00pm 21.9 WNW 5 10 1020.3 - 0.0 - - - - - - -
23/11:30am 22.2 NW 6 11 1021.0 - 0.0 - - - - - - -
23/11:00am 22.1 WNW 3 6 1021.6 - 0.0 - - - - - - -
23/10:30am 21.3 WNW 4 8 1022.2 - 0.0 - - - - - - -
23/10:00am 19.1 SW 2 5 1022.5 - 0.0 - - - - - - -
23/09:30am 18.0 NNE 3 5 1022.8 - 0.0 - - - - - - -
23/09:00am 16.9 SW 2 4 1022.6 - 0.0 - - - - - - -
23/08:30am 15.1 NNW 3 5 1022.5 - 0.0 - - - - - - -
23/08:00am 12.5 N 1 4 1022.3 - 0.0 - - - - - - -
23/07:30am 11.2 CALM 0 0 1022.1 - 0.0 - - - - - - -
23/07:00am 9.8 CALM 0 0 1021.9 - 0.0 - - - - - - -
23/06:30am 9.8 CALM 0 0 1021.6 - 0.0 - - - - - - -
23/06:00am 9.8 CALM 0 0 1021.3 - 0.0 - - - - - - -
23/05:30am 9.9 CALM 0 0 1021.1 - 0.0 - - - - - - -
23/05:00am 9.8 SW 1 3 1021.0 - 0.0 - - - - - - -
23/04:30am 9.3 CALM 0 0 1021.0 - 0.0 - - - - - - -
23/04:00am 9.7 CALM 0 0 1021.0 - 0.0 - - - - - - -
23/03:30am 9.9 CALM 0 0 1021.0 - 0.0 - - - - - - -
23/03:00am 9.9 CALM 0 0 1021.0 - 0.0 - - - - - - -
23/02:30am 10.2 CALM 0 0 1021.2 - 0.0 - - - - - - -
23/02:00am 10.3 CALM 0 0 1021.3 - 0.0 - - - - - - -
23/01:30am 10.7 CALM 0 0 1021.6 - 0.0 - - - - - - -
23/01:00am 10.8 CALM 0 0 1021.7 - 0.0 - - - - - - -
23/12:30am 10.8 SW 2 4 1021.8 - 0.0 - - - - - - -
23/12:00am 11.1 CALM 0 0 1021.9 - 0.0 - - - - - - -
 
Date/Time
EST
Temp
°C
Wind Pressure Rain since
9am
mm
Weather Cloud Vis
km
Sea
Height
m
Swell
Dir  Spd
kts
Gust
kts
hPa Trend Height
m
Period
s
Dir
22/11:30pm 11.2 CALM 0 0 1022.1 - 0.0 - - - - - - -
22/11:00pm 11.6 CALM 0 0 1022.3 - 0.0 - - - - - - -
22/10:30pm 11.9 CALM 0 0 1022.4 - 0.0 - - - - - - -
22/10:00pm 11.9 CALM 0 0 1022.5 - 0.0 - - - - - - -
22/09:30pm 12.2 CALM 0 0 1022.4 - 0.0 - - - - - - -
22/09:00pm 12.7 CALM 0 0 1022.2 - 0.0 - - - - - - -
22/08:30pm 13.0 CALM 0 0 1022.0 - 0.0 - - - - - - -
22/08:00pm 13.6 SW 1 4 1021.9 - 0.0 - - - - - - -
22/07:30pm 14.2 SW 1 3 1021.6 - 0.0 - - - - - - -
22/07:00pm 14.7 CALM 0 0 1021.5 - 0.0 - - - - - - -
22/06:30pm 15.6 SW 3 4 1021.3 - 0.0 - - - - - - -
22/06:00pm 16.4 SSW 1 3 1021.0 - 0.0 - - - - - - -
22/05:30pm 17.2 SE 3 5 1020.8 - 0.0 - - - - - - -
22/05:00pm 17.6 ESE 4 6 1020.7 - 0.0 - - - - - - -
22/04:30pm 18.1 SE 6 9 1020.7 - 0.0 - - - - - - -
22/04:00pm 18.4 SE 7 11 1020.6 - 0.0 - - - - - - -
22/03:30pm 18.6 SE 7 10 1020.5 - 0.0 - - - - - - -
22/03:00pm 19.0 SE 8 12 1020.5 - 0.0 - - - - - - -
22/02:30pm 19.2 ESE 6 10 1020.5 - 0.0 - - - - - - -
22/02:00pm 19.3 ESE 8 11 1020.9 - 0.0 - - - - - - -
22/01:30pm 19.5 ESE 7 11 1021.2 - 0.0 - - - - - - -
22/01:00pm 19.5 SE 7 11 1021.4 - 0.0 - - - - - - -
22/12:30pm 19.2 ESE 8 12 1021.8 - 0.0 - - - - - - -
22/12:00pm 19.9 SE 6 10 1022.3 - 0.0 - - - - - - -
22/11:30am 19.4 ESE 7 12 1022.8 - 0.0 - - - - - - -
22/11:00am 19.3 S 7 9 1023.4 - 0.0 - - - - - - -
22/10:30am 18.6 SSE 6 12 1023.6 - 0.0 - - - - - - -
22/10:00am 18.4 S 6 9 1023.8 - 0.0 - - - - - - -
22/09:30am 18.1 SSW 5 9 1024.0 - 0.0 - - - - - - -
22/09:00am 17.5 SSW 5 8 1023.8 - 0.0 - - - - - - -
22/08:30am 14.9 CALM 0 0 1023.5 - 0.0 - - - - - - -
22/08:00am 12.3 CALM 0 0 1023.3 - 0.0 - - - - - - -
22/07:30am 10.0 CALM 0 0 1023.0 - 0.0 - - - - - - -
22/07:00am 8.6 CALM 0 0 1022.7 - 0.0 - - - - - - -
22/06:30am 8.4 CALM 0 0 1022.5 - 0.0 - - - - - - -
22/06:00am 8.5 CALM 0 3 1022.0 - 0.0 - - - - - - -
22/05:30am 8.9 CALM 0 0 1021.6 - 0.0 - - - - - - -
22/05:00am 8.9 CALM 0 0 1021.2 - 0.0 - - - - - - -
22/04:30am 9.9 CALM 0 3 1020.9 - 0.0 - - - - - - -
22/04:00am 10.5 CALM 0 0 1021.0 - 0.0 - - - - - - -
22/03:30am 10.7 CALM 0 0 1021.1 - 0.0 - - - - - - -
22/03:00am 10.9 S 1 3 1021.3 - 0.0 - - - - - - -
22/02:30am 11.2 CALM 0 0 1021.2 - 0.0 - - - - - - -
22/02:00am 11.2 S 3 4 1021.2 - 0.0 - - - - - - -
22/01:30am 11.8 SSW 3 5 1021.3 - 0.0 - - - - - - -
22/01:00am 11.9 S 3 5 1021.5 - 0.0 - - - - - - -

Other Formats:

Comma delimited format used in spreadsheet applications
http://www.bom.gov.au/fwo/IDQ60701/IDQ60701.94570.axf

JavaScript Object Notation format (JSON) in row-major order
http://www.bom.gov.au/fwo/IDQ60701/IDQ60701.94570.json